Terminal Aerodrome Forecast
Issued by NWS

Home | Current Version | Previous Version | Text Only | Print | Product List | Glossary Off
Versions: 1 2 3 4 5 6 7 8 9 10 11 12 13 14 15 16 17

000
FTUS43 KIWX 020435 AAA
TAFSBN
TAF AMD
KSBN 020435Z 0205/0224 04008KT 6SM -SHRA BR SCT015 OVC040
      TEMPO 0205/0207 5SM -SHRA BR BKN015 OVC040
     FM020700 03007KT 4SM BR OVC005
     FM021500 04008KT P6SM OVC015
     FM021900 02010KT P6SM OVC025=

USA.gov is the U.S. government's official web portal to all federal, state and local government web resources and services.